Date,TemperatureHighF,TemperatureAvgF,TemperatureLowF,DewpointHighF,DewpointAvgF,DewpointLowF,HumidityHigh,HumidityAvg,HumidityLow,PressureMaxIn,PressureMinIn,WindSpeedMaxMPH,WindSpeedAvgMPH,GustSpeedMaxMPH,PrecipitationSumIn
2013-1-1,47.9,45.6,41.9,46.0,39.0,16.9,97,80,36,30.20,29.99,9,2,17,0.49
2013-1-2,44.8,41.1,38.3,44.0,39.6,36.7,97,94,90,30.18,29.94,6,0,12,0.07
2013-1-3,41.4,36.4,24.9,37.9,34.4,23.4,96,92,81,30.35,30.13,5,0,9,0.00
2013-1-4,33.4,29.0,19.5,27.6,24.5,17.3,94,84,78,30.43,30.34,0,0,1,0.01
2013-1-5,33.4,33.4,33.4,27.3,27.3,27.3,78,78,78,30.43,30.43,0,0,0,0.00
2013-1-6,33.4,33.4,33.4,27.3,27.3,27.3,78,78,78,30.43,30.43,0,0,0,0.00
2013-1-7,49.2,36.0,23.3,28.0,25.6,20.8,90,68,39,30.50,30.39,5,0,12,0.00
2013-1-8,51.7,35.9,22.0,41.9,31.0,19.5,94,83,61,30.53,30.44,6,0,12,0.00
2013-1-9,54.2,51.3,45.0,51.6,49.1,41.9,96,92,88,30.50,30.45,2,0,4,0.00
2013-1-10,54.2,54.2,54.2,51.6,51.6,51.6,91,91,91,30.49,30.49,0,0,0,0.00
2013-1-11,57.8,54.9,54.2,56.7,52.9,51.6,98,93,91,30.49,27.24,2,0,6,0.03
2013-1-12,66.7,58.8,52.1,61.3,56.3,51.0,98,92,77,30.20,30.11,9,1,17,0.03
2013-1-13,61.3,58.5,52.8,57.3,55.6,52.0,97,90,81,30.13,30.06,10,2,18,0.32
2013-1-14,60.0,58.5,56.1,58.6,57.2,55.0,97,95,92,30.11,30.03,10,1,20,1.55
2013-1-15,55.8,53.2,50.6,55.1,52.4,49.8,98,97,95,30.11,30.01,6,0,12,1.73
2013-1-16,56.1,52.4,50.2,55.5,51.5,49.7,98,97,92,30.02,29.94,3,0,8,0.43
2013-1-17,50.7,44.9,32.2,50.1,42.9,24.5,98,93,69,30.20,29.72,8,1,21,1.97
2013-1-18,47.1,33.7,24.0,28.2,24.4,21.1,92,71,41,30.58,30.21,5,0,9,0.00
2013-1-19,48.5,34.7,23.1,31.5,25.4,15.6,98,72,28,30.56,30.28,6,1,14,0.00
2013-1-20,55.1,42.8,28.9,33.4,25.8,16.6,85,53,33,30.28,30.12,15,3,21,0.00
2013-1-21,48.5,36.8,26.4,28.7,21.7,14.0,89,57,35,30.15,30.06,22,5,36,0.00
2013-1-22,36.2,28.8,20.9,14.2,9.3,5.0,61,44,28,30.30,30.04,16,4,29,0.00
2013-1-23,45.0,31.4,17.3,28.4,17.5,5.1,70,57,44,30.40,30.16,16,4,29,0.00
2013-1-24,45.1,36.2,22.1,32.3,17.1,4.5,71,48,19,30.47,30.07,18,5,39,0.00
2013-1-25,42.4,27.9,18.6,39.4,21.2,4.5,95,77,49,30.49,30.18,14,2,24,0.13
2013-1-26,42.4,34.1,26.0,36.7,30.2,24.0,93,86,63,30.41,30.19,6,1,14,0.00
2013-1-27,43.9,31.8,22.2,33.0,27.2,20.2,95,84,64,30.60,30.41,5,0,10,0.01
2013-1-28,59.0,46.3,35.3,48.8,40.3,29.0,94,80,64,30.54,30.30,15,2,22,0.00
2013-1-29,64.4,54.8,46.4,56.0,49.9,42.1,96,84,65,30.31,30.04,12,3,20,0.39
2013-1-30,59.0,54.6,41.7,58.2,52.8,36.7,97,94,80,30.04,29.48,15,5,38,5.87
2013-1-31,41.3,32.5,26.5,37.2,21.6,17.7,91,65,48,30.13,29.55,21,8,37,0.04
2013-2-1,37.2,29.1,18.5,29.5,11.8,1.5,88,50,28,30.41,30.03,18,5,37,0.00
2013-2-2,38.2,26.6,17.3,30.7,19.5,7.4,95,76,40,30.44,30.14,12,1,22,0.00
2013-2-3,38.8,33.4,29.3,30.8,24.8,20.0,93,71,56,30.14,29.97,20,7,40,0.14
2013-2-4,47.8,32.7,22.9,26.9,22.5,18.7,86,68,40,30.22,29.04,7,0,20,0.00
2013-2-5,52.8,39.1,28.2,37.8,30.0,23.4,92,71,46,30.11,30.02,13,2,27,0.00
2013-2-6,57.8,39.3,27.1,34.9,26.7,22.3,94,67,26,30.30,30.10,10,1,18,0.00
2013-2-7,42.9,38.6,32.1,40.5,33.5,26.6,98,82,57,30.31,30.05,5,0,10,0.36
2013-2-8,51.4,42.7,35.3,43.2,34.8,20.9,97,76,40,30.15,29.97,13,2,22,0.00
2013-2-9,55.4,38.5,24.2,26.5,21.8,13.5,86,57,19,30.41,30.13,10,1,18,0.00
2013-2-10,48.7,38.9,31.7,40.2,30.3,20.4,96,73,36,30.46,30.25,6,0,12,0.87
2013-2-11,55.7,48.1,41.4,53.2,42.1,23.9,98,82,43,30.25,30.03,10,2,23,0.33
2013-2-12,51.4,43.4,34.2,39.3,30.9,21.9,94,64,37,30.14,29.97,8,0,13,0.10
2013-2-13,47.0,38.6,31.8,41.0,35.3,28.3,99,88,70,29.97,29.71,15,2,31,0.06
2013-2-14,49.8,35.1,23.1,33.8,26.3,19.2,93,73,32,30.15,29.94,14,1,20,0.01
2013-2-15,52.2,37.8,24.2,35.2,28.1,22.2,94,72,39,30.19,30.03,14,2,20,0.00
2013-2-16,36.6,29.6,19.6,31.0,19.5,8.0,92,67,40,30.08,29.88,16,3,26,0.00
2013-2-17,34.6,25.7,18.0,12.7,6.5,2.5,64,45,29,30.37,30.08,17,6,35,0.00
2013-2-18,48.1,32.9,17.7,24.9,19.2,11.9,84,59,37,30.47,30.28,9,1,16,0.00
2013-2-19,47.9,37.8,32.3,38.5,25.6,9.9,95,65,34,30.28,29.95,21,4,35,0.25
2013-2-20,47.6,34.2,20.8,17.6,10.8,5.0,72,41,20,30.20,30.08,9,2,21,0.00
2013-2-21,53.9,37.6,22.1,35.6,21.3,15.2,93,57,23,30.29,30.17,7,0,12,0.39
2013-2-22,41.5,37.0,33.2,40.3,35.6,30.7,97,95,90,30.33,30.14,5,0,7,0.54
2013-2-23,49.4,44.9,39.7,48.6,44.2,38.9,98,97,95,30.16,29.88,2,0,4,0.36
2013-2-24,58.1,43.5,28.7,39.5,31.7,24.6,97,69,28,30.09,29.90,14,2,20,0.00
2013-2-25,45.2,36.0,27.7,31.9,27.1,23.8,94,72,48,30.18,30.05,3,0,12,0.13
2013-2-26,41.7,36.1,32.4,39.0,34.2,30.9,97,93,78,30.07,29.66,12,1,20,2.36
2013-2-27,52.6,41.3,34.4,37.1,30.5,27.2,83,67,39,29.86,29.73,15,6,27,0.01
2013-2-28,37.3,32.8,26.5,30.5,23.9,20.6,81,70,62,29.97,29.76,18,7,27,0.00
2013-3-1,39.7,31.6,21.5,27.2,24.5,19.0,91,75,60,30.02,29.94,10,2,17,0.00
2013-3-2,36.4,31.1,25.3,29.9,24.7,16.0,93,78,54,30.00,29.92,8,1,17,0.08
2013-3-3,38.0,27.3,17.0,18.8,15.2,12.4,84,61,42,30.09,29.98,12,2,18,0.00
2013-3-4,48.0,32.1,16.6,24.2,17.5,11.3,81,58,33,30.23,30.08,7,1,15,0.00
2013-3-5,48.9,38.9,29.3,47.0,34.8,23.0,96,85,69,30.19,29.73,20,2,33,0.74
2013-3-6,37.3,29.8,23.4,26.0,22.0,16.7,90,73,55,30.22,29.74,17,6,35,0.00
2013-3-7,54.0,33.6,19.6,31.2,24.8,17.4,92,73,36,30.33,30.21,6,1,10,0.00
2013-3-8,57.9,36.5,21.5,27.2,21.0,10.4,91,61,16,30.39,30.30,8,1,14,0.00
2013-3-9,58.0,41.1,24.8,32.5,25.6,18.0,79,57,33,30.41,30.32,6,0,12,0.00
2013-3-10,60.5,46.5,33.8,35.3,31.9,28.0,82,60,36,30.34,30.22,8,1,14,0.00
2013-3-11,50.5,47.1,42.3,49.7,45.0,34.3,99,93,72,30.23,29.87,6,1,10,1.79
2013-3-12,59.0,48.3,36.4,48.7,39.7,26.7,98,76,35,30.05,29.79,12,2,20,0.25
2013-3-13,42.2,34.4,27.2,27.3,21.7,16.2,85,61,39,30.23,30.05,20,4,32,0.00
2013-3-14,48.4,33.2,19.0,21.2,14.9,9.2,83,50,24,30.37,30.22,10,2,18,0.00
2013-3-15,64.4,46.1,26.0,40.6,29.2,10.9,80,54,32,30.28,30.02,18,4,30,0.00
2013-3-16,71.8,59.8,48.8,50.0,42.3,39.2,71,53,35,30.02,29.79,17,7,30,0.00
2013-3-17,67.9,57.4,47.1,48.8,44.8,41.0,80,64,43,29.99,29.86,12,2,20,0.00
2013-3-18,53.4,43.9,40.5,46.7,41.7,39.2,97,92,78,30.03,29.89,7,0,12,0.71
2013-3-19,55.5,45.4,32.6,45.2,29.6,15.9,97,60,26,30.12,29.91,18,4,31,0.01
2013-3-20,50.8,37.4,27.3,28.0,18.0,9.3,85,50,20,30.16,29.91,14,3,24,0.00
2013-3-21,38.8,30.9,22.8,27.3,11.4,-0.8,85,45,32,30.02,29.81,18,5,30,0.00
2013-3-22,43.1,32.6,20.4,26.5,18.0,11.9,76,56,36,30.13,30.02,8,1,15,0.00
2013-3-23,57.2,43.3,36.1,47.1,38.2,26.5,95,83,64,30.12,29.92,6,0,12,0.08
2013-3-24,44.3,41.1,37.0,41.7,39.2,36.0,97,93,84,29.96,29.56,6,1,15,1.06
2013-3-25,37.0,30.6,26.2,36.2,22.5,18.1,97,72,59,29.99,29.58,25,9,35,0.00
2013-3-26,36.2,30.2,25.3,23.5,19.6,16.2,82,65,51,30.28,29.99,15,4,26,0.00
2013-3-27,47.7,34.2,20.2,21.5,19.0,15.9,86,56,33,30.35,30.25,12,3,20,0.00
2013-3-28,52.9,36.0,20.0,22.6,17.5,8.8,89,54,17,30.39,30.28,14,2,25,0.00
2013-3-29,50.3,38.5,25.1,36.7,26.3,18.0,91,64,31,30.41,30.30,12,2,20,0.08
2013-3-30,57.8,46.8,39.3,43.4,39.0,36.3,95,76,50,30.30,30.11,9,1,17,0.05
2013-3-31,60.0,51.6,44.7,51.6,47.4,41.6,97,86,63,30.12,29.88,10,2,20,0.35
2013-4-1,60.0,52.1,42.2,49.0,40.4,31.9,97,67,42,30.01,29.86,18,5,30,0.00
2013-4-2,59.5,47.3,31.6,32.2,23.3,11.1,86,45,17,30.16,30.00,15,3,25,0.00
2013-4-3,56.0,46.5,37.5,30.6,24.2,18.5,56,42,30,30.29,30.15,7,1,12,0.00
2013-4-4,45.4,36.9,32.5,35.7,30.8,24.6,94,80,44,30.28,30.03,6,1,15,0.83
2013-4-5,59.2,45.0,31.4,43.8,33.0,18.8,97,69,21,30.14,29.98,10,1,16,0.00
2013-4-6,63.1,47.2,28.9,37.2,32.1,26.6,92,61,33,30.28,30.14,12,1,20,0.00
2013-4-7,62.5,49.9,33.7,45.4,39.0,30.4,90,68,51,30.26,30.16,14,2,22,0.00
2013-4-8,68.0,55.5,41.8,52.4,46.3,38.9,92,73,54,30.20,30.12,12,2,22,0.00
2013-4-9,74.9,61.3,46.8,56.2,51.3,44.6,97,72,51,30.22,30.14,12,1,20,0.00
2013-4-10,78.0,64.6,49.1,58.2,53.3,46.5,93,69,47,30.15,29.97,10,2,18,0.00
2013-4-11,70.5,61.9,52.1,61.5,55.3,49.1,97,80,56,29.98,29.68,22,2,35,3.87
2013-4-12,69.2,60.4,50.6,57.3,46.2,33.0,97,64,31,29.86,28.28,15,6,30,1.32
2013-4-13,70.1,56.6,42.2,38.3,33.5,28.7,72,45,22,30.07,29.83,16,5,24,0.00
2013-4-14,64.9,50.9,37.7,49.0,40.3,33.3,95,70,38,30.13,30.03,6,0,15,0.31
2013-4-15,66.2,55.2,49.1,57.3,52.2,47.7,100,90,73,30.23,29.99,5,0,12,0.35
2013-4-16,71.9,62.2,55.1,59.7,56.2,53.4,97,82,63,30.30,30.21,8,1,15,0.02
2013-4-17,74.9,61.2,52.8,60.7,56.7,51.1,97,86,59,30.26,30.14,6,0,16,0.39
2013-4-18,69.9,61.6,54.0,58.5,56.2,53.2,97,83,63,30.15,29.96,8,1,17,0.00
2013-4-19,63.0,57.4,42.0,60.9,53.5,31.7,98,87,49,29.97,29.74,18,4,33,2.06
2013-4-20,60.7,45.9,32.1,34.6,29.0,20.1,78,54,32,30.33,29.92,10,2,15,0.00
2013-4-21,57.6,45.5,30.1,36.3,30.8,24.9,91,60,38,30.48,30.33,9,2,18,0.00
2013-4-22,61.4,48.6,39.2,39.7,36.2,33.5,85,65,37,30.45,30.24,8,2,17,0.00
2013-4-23,66.4,50.4,31.2,45.4,37.6,28.1,89,65,41,30.32,30.16,8,1,15,0.00
2013-4-24,66.8,55.0,43.5,56.7,49.3,40.5,95,82,60,30.20,30.06,10,2,22,0.03
2013-4-25,68.4,54.8,41.0,53.9,33.9,14.1,94,56,13,30.33,30.09,14,2,20,0.00
2013-4-26,65.1,50.4,31.0,40.4,33.0,26.3,85,55,32,30.45,30.33,10,1,17,0.00
2013-4-27,53.2,49.7,47.4,49.7,46.4,39.3,96,89,61,30.42,30.29,6,0,12,0.97
2013-4-28,50.9,48.4,46.0,50.1,47.5,44.7,98,97,95,30.30,30.09,8,0,13,2.04
2013-4-29,66.7,56.8,48.4,57.5,52.4,47.9,98,86,67,30.11,29.97,13,1,20,0.07
2013-4-30,68.9,58.4,46.5,56.8,52.0,45.4,97,81,46,30.18,30.00,6,1,13,0.00
2013-5-1,62.0,56.7,52.6,55.0,50.7,48.8,92,81,65,30.28,30.17,8,2,20,0.00
2013-5-2,58.2,53.6,51.5,53.9,51.1,49.4,96,92,83,30.31,30.23,5,1,14,0.06
2013-5-3,54.7,51.3,48.9,51.4,49.1,47.0,96,92,77,30.25,30.11,8,2,16,0.22
2013-5-4,50.2,46.3,43.3,48.7,44.4,40.4,96,93,85,30.11,30.00,8,3,21,1.13
2013-5-5,48.0,46.5,44.6,47.2,45.3,43.3,97,96,94,30.03,29.87,9,2,20,3.11
2013-5-6,57.6,50.3,40.6,49.3,45.1,39.0,98,83,61,29.94,29.83,12,1,21,0.11
2013-5-7,61.4,48.8,34.4,49.9,41.7,33.1,97,79,46,30.02,29.92,8,1,13,0.00
2013-5-8,64.6,55.1,44.3,52.4,48.9,43.0,97,81,61,30.09,29.97,13,2,20,0.01
2013-5-9,77.0,61.9,47.8,56.7,50.6,41.8,97,71,29,30.13,30.06,12,2,20,0.00
2013-5-10,72.5,61.7,48.5,58.7,54.2,47.1,96,78,56,30.12,29.97,12,2,20,0.00
2013-5-11,69.0,61.1,54.2,61.1,55.3,51.3,92,82,63,29.99,29.83,17,2,24,0.02
2013-5-12,64.5,55.5,44.3,52.7,37.9,28.9,91,55,27,30.09,29.88,17,5,24,0.00
2013-5-13,62.6,48.9,33.8,34.2,29.3,24.1,83,51,24,30.25,30.08,16,3,25,0.00
2013-5-14,69.4,52.7,32.9,50.1,39.6,29.7,89,64,41,30.30,30.17,10,2,21,0.00
2013-5-15,84.1,70.7,54.5,59.4,51.9,48.8,82,53,31,30.17,29.97,14,4,29,0.00
2013-5-16,76.4,65.1,51.0,59.4,51.8,46.3,91,65,35,30.06,29.98,10,2,24,0.00
2013-5-17,76.5,63.8,51.7,59.6,55.2,50.0,95,76,46,30.12,30.04,8,1,15,0.00
2013-5-18,62.7,60.7,58.6,60.8,58.7,54.0,97,93,81,30.12,30.06,3,0,12,1.37
2013-5-19,69.4,63.4,59.6,64.0,61.3,58.5,98,93,81,30.13,30.02,6,0,12,0.09
2013-5-20,77.4,62.9,53.7,66.9,59.7,53.1,98,90,63,30.13,30.06,7,0,12,1.74
2013-5-21,79.3,63.4,56.7,68.3,60.7,56.1,99,92,57,30.08,29.99,9,1,23,1.07
2013-5-22,77.0,64.3,55.4,68.9,61.1,54.8,98,90,66,30.05,29.90,18,1,46,0.93
2013-5-23,76.9,66.2,58.7,61.8,56.5,48.7,100,74,42,29.97,29.88,13,4,22,0.06
2013-5-24,66.4,59.7,46.0,50.3,39.3,24.8,83,51,24,30.24,29.90,16,3,24,0.00
2013-5-25,71.7,55.9,37.2,50.2,40.5,30.7,88,59,28,30.35,30.23,7,1,15,0.00
2013-5-26,73.6,57.2,45.0,53.5,46.7,41.4,91,71,35,30.31,30.21,13,2,20,0.01
2013-5-27,74.8,61.5,45.9,58.6,52.8,44.3,95,75,51,30.31,30.18,8,1,15,0.00
2013-5-28,76.6,66.1,55.0,61.1,57.0,53.3,95,74,53,30.23,30.17,8,1,15,0.00
2013-5-29,77.8,67.9,58.6,62.9,59.1,56.1,93,75,49,30.23,30.16,7,1,15,0.00
2013-5-30,76.7,66.0,55.9,62.2,58.8,54.2,95,79,58,30.27,30.18,7,1,16,0.00
2013-5-31,76.9,67.4,59.8,61.9,59.7,57.3,93,78,56,30.23,30.13,8,1,16,0.00
2013-6-1,76.3,68.3,61.5,63.3,61.5,58.6,92,80,60,30.14,30.03,14,1,20,0.00
2013-6-2,71.0,65.7,62.5,67.7,63.9,61.0,97,94,83,30.08,29.91,6,1,13,1.89
2013-6-3,79.0,69.9,61.2,64.8,61.3,55.6,96,77,45,29.98,28.67,9,2,23,0.00
2013-6-4,78.0,66.6,53.3,64.4,59.3,52.2,97,79,53,30.09,29.96,7,1,14,0.00
2013-6-5,75.1,67.1,60.3,65.9,63.0,58.9,96,87,70,30.08,29.94,6,1,16,1.65
2013-6-6,71.9,64.9,59.0,66.8,62.5,58.2,98,92,80,29.97,29.80,6,0,12,0.06
2013-6-7,80.8,67.3,61.9,67.3,63.0,59.4,98,87,49,29.84,29.68,10,2,18,0.28
2013-6-8,75.7,66.8,57.7,66.2,61.9,56.9,97,85,58,30.11,29.84,9,1,15,0.02
2013-6-9,76.8,65.5,58.3,68.7,62.7,57.2,97,91,72,30.15,30.04,9,1,18,2.16
2013-6-10,74.6,67.0,62.7,66.1,62.5,57.5,97,87,56,30.05,29.92,12,2,22,2.38
2013-6-11,82.4,70.1,59.6,64.8,61.2,58.4,97,76,47,30.03,29.95,12,2,20,0.05
2013-6-12,87.1,71.8,58.6,70.8,64.1,56.6,95,78,52,30.05,29.96,9,1,16,0.00
2013-6-13,85.5,72.3,62.1,66.9,63.6,60.9,96,76,46,29.96,29.72,18,4,28,0.50
2013-6-14,77.2,66.0,54.2,61.2,54.4,49.8,96,69,40,30.07,29.80,7,1,18,0.00
2013-6-15,77.0,64.2,48.3,62.4,55.7,46.7,95,76,55,30.17,30.07,9,1,14,0.00
2013-6-16,79.1,68.1,55.3,65.4,60.7,53.6,95,79,58,30.16,30.04,10,1,14,0.00
2013-6-17,78.6,70.0,64.3,68.4,64.8,61.9,96,85,62,30.07,29.94,9,1,17,0.08
2013-6-18,74.8,67.9,62.3,68.3,64.6,60.9,97,90,70,29.96,29.81,14,2,20,0.06
2013-6-19,76.2,66.9,58.2,65.1,61.4,57.4,97,83,62,30.14,29.92,5,1,13,0.00
2013-6-20,75.6,65.3,56.6,64.9,60.6,55.2,96,85,67,30.26,30.12,7,1,12,0.00
2013-6-21,77.9,67.0,56.9,63.0,59.6,55.7,97,79,53,30.28,30.19,7,1,14,0.00
2013-6-22,78.9,66.9,55.3,63.9,58.4,53.8,97,76,43,30.26,30.14,6,1,12,0.00
2013-6-23,76.7,66.8,56.8,68.5,62.0,55.1,96,85,66,30.22,30.14,6,0,12,0.37
2013-6-24,77.3,68.7,61.5,69.6,65.2,60.8,98,89,71,30.23,30.12,7,0,15,0.21
2013-6-25,80.6,68.7,59.7,70.0,64.3,58.7,97,87,57,30.17,30.05,10,1,16,0.70
2013-6-26,83.6,70.6,61.3,68.9,65.1,60.4,98,84,56,30.07,29.93,13,2,25,0.01
2013-6-27,82.2,71.7,63.8,69.7,66.0,62.2,97,83,62,29.98,29.77,13,3,24,0.31
2013-6-28,84.1,73.1,61.7,68.3,64.3,60.5,96,76,48,29.83,29.63,13,2,26,0.00
2013-6-29,81.8,70.8,58.9,64.4,58.9,54.9,93,69,40,29.72,29.63,12,2,20,0.00
2013-6-30,80.0,68.0,55.9,65.0,59.9,54.2,94,77,52,29.83,29.71,6,1,15,0.35
2013-7-1,77.4,66.4,60.0,67.2,62.6,58.7,97,88,67,29.97,29.79,15,1,21,2.15
2013-7-2,75.6,68.1,61.1,67.9,64.4,60.2,98,89,71,30.14,29.97,7,1,15,1.12
2013-7-3,71.9,65.7,60.5,69.1,64.4,59.6,98,95,90,30.23,30.09,13,1,20,3.80
2013-7-4,67.6,63.8,60.5,66.7,63.1,59.9,98,98,95,30.23,30.17,5,0,15,3.31
2013-7-5,77.4,68.2,63.6,66.6,64.6,62.5,98,89,65,30.26,30.19,7,1,17,0.31
2013-7-6,74.9,67.4,63.9,69.6,65.8,62.8,98,95,80,30.22,30.12,6,1,13,1.54
2013-7-7,76.3,69.8,66.1,70.4,67.2,65.1,97,92,79,30.17,30.10,8,1,14,0.87
2013-7-8,80.7,70.0,63.2,71.2,66.3,62.3,98,89,68,30.20,30.12,5,0,10,0.02
2013-7-9,81.4,72.0,64.7,72.5,68.3,63.8,98,89,66,30.19,30.07,6,0,12,0.07
2013-7-10,79.5,70.2,64.9,72.8,67.8,64.0,98,93,76,30.13,29.97,3,0,10,0.21
2013-7-11,78.1,69.0,63.9,71.3,66.7,63.0,98,93,73,29.98,29.89,7,0,10,0.45
2013-7-12,77.8,66.8,59.8,70.4,64.2,59.2,99,92,74,30.01,29.89,6,0,20,2.00
2013-7-13,71.9,65.4,60.5,66.2,62.8,59.6,98,91,81,30.13,30.00,7,1,15,0.28
2013-7-14,69.7,67.0,65.1,67.3,65.6,64.2,98,95,89,30.29,30.11,6,1,20,0.69
2013-7-15,78.4,69.8,62.5,68.7,65.8,61.9,99,88,69,30.35,30.27,5,0,12,0.08
2013-7-16,84.3,73.6,63.7,73.1,68.2,63.1,99,85,54,30.33,30.24,5,0,13,0.08
2013-7-17,85.3,72.2,62.4,70.8,66.6,61.5,98,84,53,30.29,30.16,3,0,12,0.19
2013-7-18,82.1,71.9,61.3,71.5,67.1,60.4,98,86,66,30.21,30.09,5,0,12,0.01
2013-7-19,84.1,73.0,61.2,71.8,66.6,60.3,98,82,58,30.14,30.00,7,1,14,0.00
2013-7-20,82.3,71.3,65.8,70.6,67.1,64.6,96,87,59,30.05,27.19,8,0,12,0.00
2013-7-21,82.0,69.9,63.8,71.7,66.3,62.9,98,89,61,30.01,29.94,9,0,12,1.83
2013-7-22,80.8,70.1,62.1,71.5,66.2,61.3,98,88,64,30.01,29.86,9,1,14,0.18
2013-7-23,81.9,72.1,63.9,68.3,64.4,61.6,96,78,55,29.91,29.80,12,3,18,0.00
2013-7-24,83.2,67.9,60.7,69.5,63.9,58.6,97,88,59,29.89,29.78,12,0,23,1.60
2013-7-25,78.5,67.0,55.8,69.1,62.6,55.2,98,87,66,30.06,29.88,8,1,14,0.03
2013-7-26,78.6,67.5,58.3,67.9,63.2,57.3,97,87,65,30.11,30.03,8,1,13,0.02
2013-7-27,76.4,69.7,64.5,68.5,65.6,63.0,98,88,67,30.06,29.90,5,0,12,0.71
2013-7-28,80.9,69.3,59.0,67.8,62.4,58.2,99,81,50,30.04,29.91,10,1,18,0.01
2013-7-29,81.5,66.7,55.1,67.0,60.2,53.3,96,81,49,30.20,30.04,7,0,12,0.00
2013-7-30,79.0,68.1,55.8,69.4,62.6,54.4,96,84,64,30.23,30.15,8,0,13,0.00
2013-7-31,73.6,68.1,64.7,68.2,65.8,63.7,97,93,79,30.19,29.97,3,0,10,0.12
2013-8-1,83.6,70.5,64.4,70.5,65.7,62.9,97,86,50,30.00,29.90,13,1,23,0.04
2013-8-2,79.7,69.1,58.1,68.9,64.2,57.3,97,86,66,30.06,29.95,6,1,13,0.00
2013-8-3,81.6,71.2,62.4,67.5,63.8,60.4,97,79,53,30.06,29.98,9,1,13,0.00
2013-8-4,83.9,72.8,62.1,68.9,64.0,57.5,92,75,51,30.05,29.96,8,2,16,0.00
2013-8-5,77.6,68.4,58.7,68.3,62.6,55.8,95,82,65,30.07,29.99,7,1,13,0.00
2013-8-6,79.8,69.6,65.0,70.6,66.3,62.8,97,90,61,30.06,29.96,3,0,10,0.37
2013-8-7,72.5,67.7,65.9,69.2,66.6,65.0,98,96,89,30.07,30.01,3,0,12,1.47
2013-8-8,78.1,69.7,65.6,71.4,67.8,65.0,98,94,78,30.08,30.03,8,0,14,0.35
2013-8-9,78.7,70.9,65.8,73.0,68.4,64.9,98,92,75,30.11,30.03,8,1,12,0.11
2013-8-10,80.5,71.1,64.4,72.7,67.7,63.8,99,90,67,30.14,30.07,9,1,15,0.09
2013-8-11,83.0,72.2,65.2,72.0,67.3,64.3,98,86,61,30.15,30.07,12,2,20,0.03
2013-8-12,84.0,72.4,63.9,72.9,67.4,62.9,98,86,57,30.12,29.98,9,1,16,0.00
2013-8-13,80.0,70.7,65.0,68.8,65.8,62.8,97,86,61,30.00,29.85,10,2,16,0.08
2013-8-14,74.3,65.2,57.8,64.6,60.8,56.6,97,86,68,30.09,29.90,3,0,9,0.00
2013-8-15,64.5,61.1,56.5,59.3,56.1,54.0,92,84,73,30.16,30.07,6,0,15,0.00
2013-8-16,67.4,60.7,55.8,59.2,55.4,52.6,93,83,69,30.19,30.11,5,1,12,0.00
2013-8-17,64.5,60.7,58.5,60.7,56.5,50.4,97,86,71,30.20,30.14,5,0,12,0.17
2013-8-18,73.4,64.4,59.6,67.4,62.3,58.8,98,93,78,30.25,30.15,6,0,12,0.17
2013-8-19,71.3,65.5,61.9,66.4,63.6,61.0,98,94,83,30.22,30.10,2,0,7,2.06
2013-8-20,76.1,66.9,60.3,68.6,64.4,59.7,98,92,74,30.22,30.13,3,0,9,0.01
2013-8-21,74.0,66.6,62.9,68.3,64.9,62.0,97,94,78,30.26,30.16,5,0,10,0.36
2013-8-22,80.5,68.7,60.3,70.1,65.3,59.6,98,90,63,30.20,30.07,5,0,10,0.04
2013-8-23,79.5,70.1,58.5,71.0,65.3,57.7,98,86,63,30.11,30.04,5,0,7,0.02
2013-8-24,77.0,77.0,77.0,70.4,70.4,70.4,80,80,80,30.05,30.05,0,0,0,0.00
2013-8-25,77.0,77.0,77.0,70.4,70.4,70.4,80,80,80,30.05,30.05,0,0,0,0.00
2013-8-26,77.7,72.3,58.5,70.4,64.1,56.4,95,76,55,30.26,27.42,7,0,15,0.00
2013-8-27,80.8,66.6,53.0,68.2,60.4,51.9,97,82,53,30.21,30.07,6,0,12,0.01
2013-8-28,82.2,69.6,58.8,70.2,64.3,57.6,97,85,61,30.09,29.98,6,0,12,0.00
2013-8-29,85.7,72.7,61.4,72.1,66.2,59.9,96,82,55,30.00,29.93,6,0,12,0.01
2013-8-30,77.9,70.9,66.1,69.8,67.5,64.3,96,89,74,30.04,29.95,6,0,13,0.00
2013-8-31,78.6,70.1,62.0,72.2,67.0,61.1,98,90,72,29.98,29.90,5,0,9,0.10
2013-9-1,82.0,71.0,62.3,73.4,66.4,61.4,100,86,65,29.93,29.83,8,1,21,0.00
2013-9-2,82.0,70.0,61.4,69.9,64.5,60.3,97,84,58,29.93,29.84,8,1,13,0.02
2013-9-3,81.6,68.6,60.7,69.0,63.9,59.3,97,86,60,30.02,29.87,7,1,17,0.26
2013-9-4,78.5,68.0,55.7,68.0,62.8,54.7,97,84,65,30.13,30.01,7,0,10,0.00
2013-9-5,80.5,68.9,58.5,66.4,62.5,57.3,98,82,56,30.16,30.09,0,0,2,0.00
2013-9-6,75.5,63.5,50.9,64.4,57.8,49.5,96,83,63,30.22,30.12,6,0,12,0.01
2013-9-7,76.4,64.9,54.4,66.6,60.7,53.3,97,87,70,30.16,30.04,6,0,12,0.00
2013-9-8,78.5,66.2,54.8,68.7,61.1,53.7,97,85,61,30.06,29.98,0,0,1,0.02
2013-9-9,79.2,67.7,57.6,68.6,63.3,56.8,97,87,63,30.18,30.05,5,0,13,0.11
2013-9-10,79.8,68.0,57.3,69.1,63.5,56.5,98,87,63,30.27,30.17,5,0,10,0.01
2013-9-11,80.6,68.0,55.4,69.1,63.2,54.6,97,86,62,30.26,30.14,6,0,10,0.01
2013-9-12,79.7,69.6,61.6,69.3,64.8,60.7,97,86,66,30.13,29.89,8,1,16,0.01
2013-9-13,75.1,64.5,53.1,63.3,57.6,50.0,98,80,51,29.92,29.83,8,1,15,0.05
2013-9-14,68.6,57.0,45.5,58.2,51.5,44.4,97,83,59,30.17,29.92,5,0,12,0.00
2013-9-15,72.5,60.3,49.5,61.9,55.8,48.1,96,86,60,30.25,30.17,8,1,20,0.01
2013-9-16,77.6,64.5,52.7,65.0,59.1,51.6,98,84,57,30.21,30.11,5,0,12,0.01
2013-9-17,64.7,61.4,58.3,60.5,55.6,52.1,93,82,67,30.29,30.18,6,0,12,0.00
2013-9-18,67.3,59.8,54.3,59.1,55.3,51.4,95,86,70,30.30,30.19,3,0,12,0.00
2013-9-19,74.3,63.8,56.3,65.9,60.6,55.2,97,90,68,30.22,30.12,5,0,9,0.02
2013-9-20,75.7,66.2,56.4,66.4,61.7,55.6,98,87,67,30.12,29.96,7,0,12,0.01
2013-9-21,64.7,61.3,55.1,63.2,60.2,54.3,98,96,94,29.97,29.70,10,0,20,1.64
2013-9-22,71.4,58.3,45.9,60.8,54.4,45.4,98,88,61,29.96,29.77,5,0,7,0.01
2013-9-23,68.4,60.8,53.3,58.6,56.0,52.2,97,85,69,30.08,29.96,5,0,9,0.00
2013-9-24,67.1,59.5,49.6,60.5,56.3,48.6,97,90,75,30.10,29.97,3,0,8,0.00
2013-9-25,60.0,58.5,56.0,58.9,57.5,55.2,98,97,95,29.97,29.88,2,0,4,1.23
2013-9-26,68.1,58.7,52.7,62.2,56.5,52.2,100,93,78,30.08,29.92,5,0,7,0.00
2013-9-27,70.5,59.1,46.4,59.8,53.9,45.6,98,84,63,30.21,30.08,5,0,12,0.01
2013-9-28,66.0,58.2,50.9,57.4,53.8,49.8,97,86,70,30.26,30.17,5,0,12,0.00
2013-9-29,66.6,56.5,47.2,56.9,52.3,45.8,96,87,67,30.21,30.07,6,0,9,0.00
2013-9-30,66.7,57.7,47.5,58.1,53.8,46.7,98,88,66,30.14,30.05,7,0,12,0.00
2013-10-1,71.5,59.8,47.0,60.9,54.7,46.2,98,85,62,30.20,30.10,7,0,12,0.00
2013-10-2,75.8,61.1,49.2,61.7,56.1,48.4,99,85,59,30.21,30.12,5,0,8,0.01
2013-10-3,74.1,62.5,53.5,62.8,57.7,52.4,98,86,62,30.18,30.10,10,0,16,0.00
2013-10-4,77.0,63.2,51.3,64.8,58.1,50.5,98,85,56,30.20,30.13,1,0,5,0.01
2013-10-5,78.0,63.8,52.0,65.7,58.9,51.2,99,85,59,30.19,30.08,8,0,14,0.00
2013-10-6,73.1,63.3,53.4,63.3,58.7,52.6,99,86,64,30.10,29.92,8,1,16,0.21
2013-10-7,70.0,60.8,47.7,61.6,58.0,46.6,98,91,74,30.03,29.82,8,1,14,1.52
2013-10-8,63.8,52.7,42.7,51.2,46.7,41.6,97,81,56,30.25,30.02,6,1,16,0.01
2013-10-9,66.9,53.3,41.4,54.3,46.8,40.1,96,80,56,30.27,30.17,6,0,10,0.00
2013-10-10,71.2,54.7,40.7,56.9,49.0,39.6,100,83,56,30.20,30.07,5,0,9,0.01
2013-10-11,73.4,57.7,45.0,55.7,49.2,43.8,97,77,37,30.09,30.01,6,0,12,0.01
2013-10-12,71.6,57.8,46.3,61.2,53.0,45.2,97,85,59,30.15,30.04,3,0,9,0.00
2013-10-13,69.3,60.8,55.1,60.7,57.2,53.6,96,88,72,30.24,30.14,3,0,7,0.06
2013-10-14,64.7,60.1,57.1,59.2,57.1,54.7,97,90,80,30.24,30.16,6,0,12,0.06
2013-10-15,65.1,58.1,53.9,57.6,54.8,52.4,96,89,74,30.21,30.08,5,0,10,0.00
2013-10-16,64.3,56.0,46.8,58.0,53.1,46.0,98,91,77,30.11,30.00,5,0,7,0.00
2013-10-17,62.4,58.6,56.2,61.2,57.5,53.9,98,96,91,30.02,29.88,5,0,10,0.12
2013-10-18,64.3,54.1,47.2,54.5,50.7,46.4,98,89,69,30.06,29.93,8,0,12,0.01
2013-10-19,61.2,52.7,43.4,50.5,46.0,37.3,100,80,42,30.02,29.91,10,1,17,0.01
2013-10-20,60.0,46.0,34.4,45.1,39.8,33.1,97,81,49,30.17,29.98,7,0,12,0.01
2013-10-21,60.6,47.3,35.2,52.5,44.0,34.1,97,89,70,30.22,30.09,7,1,15,0.01
2013-10-22,65.9,55.1,46.3,54.1,48.6,44.9,95,80,51,30.10,29.84,9,1,17,0.00
2013-10-23,51.4,45.5,33.7,45.2,35.0,27.9,94,68,48,30.07,29.77,18,4,28,0.00
2013-10-24,52.5,41.1,29.8,35.3,31.0,26.1,88,68,49,30.24,30.07,12,3,23,0.00
2013-10-25,47.9,37.5,27.8,31.4,25.7,20.1,90,65,36,30.43,30.23,6,1,12,0.00
2013-10-26,51.6,37.7,24.1,44.7,29.5,22.1,92,74,38,30.42,30.17,9,1,21,0.00
2013-10-27,63.5,51.5,37.8,49.4,44.2,35.9,94,77,56,30.18,30.12,13,2,20,0.00
2013-10-28,61.7,53.4,48.6,52.8,49.8,46.1,95,88,69,30.30,30.15,7,0,12,0.10
2013-10-29,65.5,51.7,39.6,52.5,46.2,38.6,97,83,52,30.40,30.28,8,1,17,0.00
2013-10-30,70.6,57.3,47.9,58.0,51.5,46.2,96,83,56,30.35,30.22,13,2,22,0.00
2013-10-31,60.3,56.7,51.0,58.8,53.5,49.6,96,89,74,30.23,29.90,9,1,21,0.27
2013-11-1,71.6,60.4,46.6,59.2,54.7,39.9,96,83,32,29.91,29.67,12,2,26,0.40
2013-11-2,57.8,47.4,38.6,43.7,38.1,33.4,95,72,44,30.06,29.77,15,3,31,0.01
2013-11-3,55.9,43.3,30.9,37.5,33.7,28.9,93,71,43,30.42,30.05,7,1,13,0.00
2013-11-4,52.6,40.2,31.2,33.7,31.6,29.4,93,74,45,30.57,30.42,8,1,12,0.00
2013-11-5,57.4,41.9,29.9,36.2,31.1,25.3,93,70,33,30.60,30.49,5,0,12,0.00
2013-11-6,62.0,51.4,42.1,52.8,48.2,36.2,97,89,71,30.50,27.24,7,0,10,0.28
2013-11-7,62.8,51.5,30.5,54.9,43.6,27.1,97,77,40,30.16,27.24,14,2,20,0.03
2013-11-8,55.0,38.0,26.4,27.3,22.2,10.6,89,61,19,30.40,30.16,6,0,12,0.00
2013-11-9,50.0,40.3,25.8,34.4,27.6,22.5,88,63,39,30.44,30.31,7,1,15,0.00
2013-11-10,64.7,48.4,33.6,33.9,29.3,17.9,78,51,28,30.33,30.22,12,2,20,0.00
2013-11-11,56.2,41.1,27.9,33.3,29.7,24.5,88,67,39,30.38,30.25,5,0,14,0.00
2013-11-12,56.4,40.8,22.4,36.5,25.6,11.0,85,56,37,30.47,30.15,8,2,18,0.00
2013-11-13,46.3,29.2,14.8,18.3,12.3,6.9,81,53,24,30.62,27.45,5,0,12,0.00
2013-11-14,52.7,34.1,21.2,24.5,19.5,15.3,81,59,28,30.58,30.43,7,0,12,0.00
2013-11-15,49.5,41.3,26.1,47.1,37.7,19.6,97,87,69,30.44,30.28,5,0,12,0.34
2013-11-16,59.9,51.1,47.1,53.7,49.6,46.3,98,95,80,30.31,30.21,5,0,14,0.04
2013-11-17,58.4,54.5,51.7,57.8,53.7,50.9,98,97,95,30.26,29.93,2,0,7,0.76
2013-11-18,62.6,55.0,43.3,57.6,42.2,28.0,98,65,35,30.02,29.89,16,4,25,0.03
2013-11-19,51.5,39.7,27.6,30.4,25.5,16.9,90,61,26,30.30,30.01,6,0,14,0.00
2013-11-20,48.0,38.8,31.1,30.0,26.5,24.1,77,62,43,30.50,30.30,6,1,13,0.00
2013-11-21,50.6,44.7,39.3,50.1,40.7,30.0,98,86,69,30.53,30.43,2,0,5,0.49
2013-11-22,63.4,54.3,50.3,58.4,53.0,49.8,99,95,82,30.44,30.16,6,0,12,0.05
2013-11-23,55.0,48.1,32.3,54.0,40.9,16.0,98,78,42,30.20,30.10,10,1,16,0.00
2013-11-24,42.2,29.8,21.5,21.0,9.5,-4.6,70,47,16,30.57,30.20,7,1,13,0.00
2013-11-25,41.1,28.8,18.9,23.9,13.3,4.3,80,55,24,30.60,30.40,5,0,13,0.00
2013-11-26,44.6,39.3,29.6,44.1,38.2,23.3,98,96,76,30.40,29.70,6,0,9,4.11
2013-11-27,44.0,32.3,19.5,43.5,25.5,13.9,98,77,57,30.24,29.63,17,3,29,0.10
2013-11-28,44.6,27.8,15.2,26.0,20.1,12.6,91,75,42,30.59,30.24,6,1,10,0.01
2013-11-29,52.7,33.3,21.1,28.5,23.4,18.7,92,71,34,30.67,30.56,5,0,9,0.01
2013-11-30,46.1,31.3,23.2,27.5,23.4,20.2,91,74,44,30.67,30.45,5,0,9,0.00
2013-12-1,54.3,37.5,27.2,38.6,30.6,24.1,93,78,45,30.45,30.11,6,0,13,0.00
2013-12-2,53.0,40.1,28.7,41.8,35.8,26.9,94,85,64,30.10,29.89,6,0,9,0.00
2013-12-3,50.2,45.7,41.0,47.7,44.6,39.2,98,96,90,30.01,29.92,5,0,9,0.04
2013-12-4,61.2,52.7,46.0,55.4,51.2,45.5,99,95,76,30.11,29.99,7,0,15,0.02
2013-12-5,62.8,58.6,53.1,61.7,57.7,52.6,98,97,92,30.12,30.01,7,1,15,1.10
2013-12-6,64.6,62.4,56.4,61.7,60.4,54.9,97,93,87,30.04,29.94,9,4,22,1.67
2013-12-7,57.8,49.6,41.6,55.8,47.1,40.5,98,91,80,30.36,29.99,5,1,10,0.01
2013-12-8,41.7,37.9,36.0,40.6,37.0,34.8,98,96,95,30.37,30.26,2,0,5,0.62
2013-12-9,58.4,46.8,38.3,55.9,45.7,37.5,99,96,86,30.28,30.06,8,1,18,1.03
2013-12-10,53.4,42.5,24.6,52.6,35.3,21.5,98,78,38,30.33,29.91,15,3,33,0.27
2013-12-11,48.7,32.1,18.8,25.4,17.5,9.9,92,62,23,30.51,30.33,12,1,23,0.00
2013-12-12,43.3,31.0,21.3,22.8,17.8,7.9,89,61,24,30.47,30.35,8,1,14,0.00
2013-12-13,45.0,32.7,20.2,26.6,20.7,13.8,85,63,39,30.46,30.35,6,0,12,0.00
2013-12-14,43.4,38.5,33.2,42.9,35.6,25.8,98,90,73,30.35,29.84,5,0,12,1.17
2013-12-15,45.3,38.0,27.6,43.9,32.5,24.4,98,81,60,30.16,29.82,12,3,21,0.00
2013-12-16,50.3,37.9,26.0,27.8,25.7,23.2,91,64,38,30.26,29.02,17,3,28,0.00
2013-12-17,55.8,43.6,28.7,32.8,28.7,18.8,87,57,37,30.24,30.05,21,7,38,0.00
2013-12-18,46.8,34.3,23.2,21.2,18.2,11.2,80,54,25,30.40,30.10,9,1,26,0.00
2013-12-19,61.3,39.6,24.9,30.8,24.9,19.3,83,59,28,30.44,30.32,6,0,14,0.00
2013-12-20,57.4,42.5,30.2,42.2,33.6,24.8,84,72,44,30.32,30.22,6,0,15,0.00
2013-12-21,60.9,55.2,46.8,59.7,53.6,41.6,98,94,82,30.25,30.00,10,2,30,0.72
2013-12-22,61.4,56.6,53.7,60.3,55.6,52.9,98,97,91,30.06,29.97,16,2,33,3.70
2013-12-23,54.1,47.7,35.3,53.4,44.9,33.8,98,90,72,30.20,30.02,8,2,16,0.26
2013-12-24,37.8,30.7,19.9,34.2,24.2,16.5,96,78,47,30.48,30.19,7,1,15,0.00
2013-12-25,35.1,24.3,15.8,22.5,16.8,13.4,91,75,49,30.58,30.46,6,0,9,0.00
2013-12-26,48.2,33.1,18.9,26.8,20.7,15.7,89,64,31,30.48,30.36,12,2,18,0.00
2013-12-27,49.0,31.6,21.4,27.9,23.2,19.3,93,74,41,30.55,30.43,5,0,9,0.00
2013-12-28,45.4,33.7,23.5,37.9,28.9,20.7,96,84,41,30.53,30.18,3,0,7,0.45
2013-12-29,54.0,44.2,35.2,46.9,39.6,30.9,98,85,63,30.17,29.87,16,3,25,1.31
2013-12-30,45.5,39.9,32.9,37.4,34.3,30.8,94,81,62,30.19,30.01,10,2,20,0.00
2013-12-31,43.7,33.7,26.7,31.7,24.2,20.1,92,70,41,30.44,30.17,12,1,18,0.00
2014-1-1,42.4,32.0,24.7,28.8,25.4,21.6,90,78,55,30.46,30.23,7,0,12,0.00
2014-1-2,45.4,35.0,19.3,43.4,31.5,9.7,97,87,62,30.24,29.75,16,3,31,0.14